createdAt,value
2018-07-12T00:02:20.653Z,17.90
2018-07-12T00:04:51.776Z,17.90
2018-07-12T00:07:19.043Z,17.90
2018-07-12T00:09:46.400Z,17.80
2018-07-12T00:14:44.182Z,17.80
2018-07-12T00:17:11.477Z,17.70
2018-07-12T00:22:28.270Z,17.60
2018-07-12T00:24:55.578Z,17.60
2018-07-12T00:27:25.907Z,17.60
2018-07-12T00:32:20.872Z,17.50
2018-07-12T00:34:48.668Z,17.50
2018-07-12T00:37:16.018Z,17.60
2018-07-12T00:39:43.336Z,17.60
2018-07-12T00:42:10.631Z,17.60
2018-07-12T00:47:05.584Z,17.70
2018-07-12T00:49:32.944Z,17.70
2018-07-12T00:54:27.826Z,17.70
2018-07-12T00:59:25.754Z,17.70
2018-07-12T01:04:20.563Z,17.50
2018-07-12T01:06:47.961Z,17.50
2018-07-12T01:09:15.250Z,17.50
2018-07-12T01:11:45.195Z,17.40
2018-07-12T01:14:12.561Z,17.60
2018-07-12T01:16:39.850Z,17.80
2018-07-12T01:21:35.642Z,17.80
2018-07-12T01:24:02.990Z,17.90
2018-07-12T01:26:30.289Z,17.70
2018-07-12T01:28:57.741Z,17.50
2018-07-12T01:31:25.064Z,17.50
2018-07-12T01:33:52.392Z,17.40
2018-07-12T01:36:19.717Z,17.40
2018-07-12T01:43:44.969Z,17.30
2018-07-12T01:51:07.415Z,17.10
2018-07-12T01:53:35.229Z,17.20
2018-07-12T01:56:05.440Z,17.20
2018-07-12T01:58:32.748Z,17.50
2018-07-12T02:01:03.023Z,17.30
2018-07-12T02:03:30.354Z,17.10
2018-07-12T02:06:03.671Z,17.40
2018-07-12T02:08:30.957Z,17.20
2018-07-12T02:11:08.924Z,17.00
2018-07-12T02:16:03.889Z,17.00
2018-07-12T02:18:31.250Z,17.00
2018-07-12T02:21:03.322Z,16.90
2018-07-12T02:23:30.682Z,17.00
2018-07-12T02:25:57.948Z,17.30
2018-07-12T02:30:52.789Z,17.40
2018-07-12T02:35:54.430Z,17.20
2018-07-12T02:38:21.705Z,17.20
2018-07-12T02:48:12.085Z,17.10
2018-07-12T02:50:42.378Z,17.10
2018-07-12T02:53:09.703Z,17.20
2018-07-12T02:55:37.052Z,17.20
2018-07-12T02:58:04.367Z,17.20
2018-07-12T03:03:02.133Z,17.30
2018-07-12T03:05:29.412Z,17.30
2018-07-12T03:07:56.693Z,17.30
2018-07-12T03:10:24.015Z,17.30
2018-07-12T03:12:51.304Z,17.30
2018-07-12T03:15:18.603Z,17.20
2018-07-12T03:17:45.969Z,17.20
2018-07-12T03:20:15.824Z,17.50
2018-07-12T03:22:43.138Z,17.30
2018-07-12T03:25:10.463Z,17.20
2018-07-12T03:30:05.314Z,17.20
2018-07-12T03:32:32.654Z,17.00
2018-07-12T03:34:59.940Z,17.20
2018-07-12T03:37:27.212Z,17.00
2018-07-12T03:39:54.531Z,16.90
2018-07-12T03:42:21.819Z,16.80
2018-07-12T03:44:49.100Z,16.80
2018-07-12T03:49:43.996Z,16.70
2018-07-12T03:52:11.269Z,16.70
2018-07-12T03:57:06.129Z,16.60
2018-07-12T03:59:33.408Z,16.60
2018-07-12T04:02:00.746Z,16.70
2018-07-12T04:04:28.021Z,16.70
2018-07-12T04:06:55.340Z,16.70
2018-07-12T04:09:22.654Z,17.00
2018-07-12T04:14:17.553Z,16.80
2018-07-12T04:21:43.829Z,16.70
2018-07-12T04:26:44.500Z,16.80
2018-07-12T04:29:11.786Z,16.70
2018-07-12T04:31:39.190Z,16.70
2018-07-12T04:41:30.017Z,16.80
2018-07-12T04:43:57.314Z,16.70
2018-07-12T04:46:24.639Z,17.00
2018-07-12T04:53:52.762Z,16.80
2018-07-12T04:58:47.757Z,17.10
2018-07-12T05:01:16.535Z,16.90
2018-07-12T05:03:43.855Z,16.90
2018-07-12T05:06:11.214Z,16.90
2018-07-12T05:08:38.543Z,17.20
2018-07-12T05:13:36.170Z,17.00
2018-07-12T05:18:29.784Z,17.00
2018-07-12T05:25:55.968Z,17.00
2018-07-12T05:28:23.269Z,17.00
2018-07-12T05:30:52.556Z,17.10
2018-07-12T05:33:19.837Z,17.10
2018-07-12T05:35:49.315Z,17.50
2018-07-12T05:38:18.320Z,17.40
2018-07-12T05:40:46.899Z,17.30
2018-07-12T05:43:15.365Z,17.20
2018-07-12T05:45:44.027Z,17.20
2018-07-12T05:48:12.551Z,17.60
2018-07-12T05:50:47.938Z,17.50
2018-07-12T05:55:45.580Z,17.30
2018-07-12T05:58:14.226Z,17.40
2018-07-12T06:00:43.909Z,17.40
2018-07-12T06:03:17.416Z,17.70
2018-07-12T06:08:14.211Z,17.60
2018-07-12T06:10:42.563Z,17.60
2018-07-12T06:13:10.967Z,17.60
2018-07-12T06:15:39.317Z,17.60
2018-07-12T06:18:07.659Z,17.70
2018-07-12T06:20:36.139Z,17.70
2018-07-12T06:23:04.729Z,17.70
2018-07-12T06:25:33.129Z,18.10
2018-07-12T06:28:01.737Z,18.00
2018-07-12T06:30:30.062Z,17.90
2018-07-12T06:32:58.638Z,17.90
2018-07-12T06:35:26.953Z,17.90
2018-07-12T06:37:55.335Z,18.20
2018-07-12T06:45:22.945Z,18.10
2018-07-12T06:47:51.341Z,18.10
2018-07-12T06:50:19.703Z,18.10
2018-07-12T06:52:48.070Z,18.10
2018-07-12T06:57:44.424Z,18.20
2018-07-12T07:00:12.750Z,18.20
2018-07-12T07:02:41.101Z,18.20
2018-07-12T07:05:10.374Z,18.30
2018-07-12T07:10:06.850Z,18.30
2018-07-12T07:12:37.278Z,18.30
2018-07-12T07:15:07.505Z,18.40
2018-07-12T07:17:37.571Z,18.50
2018-07-12T07:20:05.945Z,18.50
2018-07-12T07:22:35.782Z,18.50
2018-07-12T07:27:33.634Z,18.60
2018-07-12T07:36:50.081Z,18.70
2018-07-12T07:39:23.521Z,18.80
2018-07-12T07:45:51.195Z,18.90
2018-07-12T07:51:02.302Z,19.00
2018-07-12T07:56:00.253Z,19.10
2018-07-12T07:58:28.632Z,19.10
2018-07-12T08:00:57.029Z,19.10
2018-07-12T08:07:09.800Z,19.50
2018-07-12T08:10:18.553Z,19.40
2018-07-12T08:17:19.930Z,19.40
2018-07-12T08:24:08.805Z,19.40
2018-07-12T08:26:37.411Z,19.50
2018-07-12T08:32:11.318Z,19.60
2018-07-12T08:44:30.080Z,20.10
2018-07-12T08:47:00.044Z,20.00
2018-07-12T08:49:31.586Z,20.00
2018-07-12T08:52:10.561Z,20.00
2018-07-12T08:54:39.872Z,20.00
2018-07-12T08:57:08.346Z,20.00
2018-07-12T08:59:38.449Z,20.00
2018-07-12T09:09:12.732Z,20.20
2018-07-12T09:22:44.901Z,20.50
2018-07-12T09:26:02.274Z,20.60
2018-07-12T09:29:03.021Z,20.60
2018-07-12T09:31:38.638Z,20.70
2018-07-12T09:34:07.154Z,20.70
2018-07-12T09:36:42.889Z,20.80
2018-07-12T09:39:16.714Z,20.80
2018-07-12T09:41:45.167Z,20.90
2018-07-12T09:44:13.641Z,20.90
2018-07-12T09:46:42.117Z,21.00
2018-07-12T09:49:10.755Z,21.10
2018-07-12T09:51:39.184Z,21.10
2018-07-12T09:54:07.718Z,21.20
2018-07-12T09:57:12.253Z,21.20
2018-07-12T09:59:40.793Z,21.60
2018-07-12T10:02:30.441Z,21.50
2018-07-12T10:05:01.863Z,21.80
2018-07-12T10:08:16.890Z,21.70
2018-07-12T10:11:09.228Z,21.70
2018-07-12T10:16:44.293Z,22.20
2018-07-12T10:21:46.788Z,21.80
2018-07-12T10:24:16.650Z,21.80
2018-07-12T10:26:47.540Z,21.90
2018-07-12T10:29:16.201Z,22.00
2018-07-12T10:31:45.174Z,22.00
2018-07-12T10:34:13.660Z,22.10
2018-07-12T10:40:32.993Z,22.40
2018-07-12T10:44:42.025Z,22.30
2018-07-12T10:49:40.171Z,22.30
2018-07-12T10:56:21.449Z,22.50
2018-07-12T10:59:27.633Z,22.60
2018-07-12T11:01:59.061Z,22.60
2018-07-12T11:04:50.235Z,22.90
2018-07-12T11:07:25.873Z,22.80
2018-07-12T11:10:01.224Z,22.80
2018-07-12T11:12:32.452Z,22.90
2018-07-12T11:15:27.677Z,23.10
2018-07-12T11:18:12.787Z,23.20
2018-07-12T11:20:41.487Z,23.20
2018-07-12T11:30:49.543Z,23.30
2018-07-12T11:33:54.583Z,23.70
2018-07-12T11:36:23.064Z,23.90
2018-07-12T11:38:59.270Z,23.90
2018-07-12T11:45:11.708Z,23.60
2018-07-12T11:47:43.695Z,23.70
2018-07-12T11:51:55.493Z,23.80
2018-07-12T11:54:37.608Z,23.80
2018-07-12T11:57:50.602Z,23.80
2018-07-12T12:00:24.298Z,23.90
2018-07-12T12:03:46.240Z,24.00
2018-07-12T12:06:14.624Z,24.10
2018-07-12T12:09:08.542Z,24.20
2018-07-12T12:11:50.124Z,24.20
2018-07-12T12:15:09.897Z,24.50
2018-07-12T13:12:00.116Z,39.60
2018-07-12T13:15:27.910Z,39.40
2018-07-12T13:31:13.364Z,43.10
2018-07-12T13:34:00.148Z,43.60
2018-07-12T13:36:25.627Z,44.00
2018-07-12T13:39:15.801Z,43.70
2018-07-12T14:20:38.859Z,47.00
2018-07-12T14:23:10.990Z,47.10
2018-07-12T14:27:32.681Z,47.40
2018-07-12T14:29:06.706Z,47.50
2018-07-12T14:32:04.062Z,49.30
2018-07-12T14:35:39.841Z,49.90
2018-07-12T14:38:38.366Z,50.00
2018-07-12T14:41:21.345Z,49.60
2018-07-12T14:43:52.625Z,48.50
2018-07-12T14:49:30.772Z,47.60
2018-07-12T14:52:47.711Z,47.80
2018-07-12T14:58:28.890Z,47.40
2018-07-12T15:01:39.486Z,47.60
2018-07-12T15:04:30.272Z,47.80
2018-07-12T15:07:27.175Z,49.40
2018-07-12T15:10:40.593Z,47.90
2018-07-12T15:13:49.959Z,46.80
2018-07-12T15:19:45.423Z,46.80
2018-07-12T15:22:14.405Z,46.90
2018-07-12T15:24:43.107Z,46.40
2018-07-12T15:27:25.104Z,48.00
2018-07-12T15:29:58.463Z,47.70
2018-07-12T15:32:43.784Z,47.20
2018-07-12T15:35:57.446Z,46.70
2018-07-12T15:38:25.708Z,46.40
2018-07-12T15:41:09.159Z,46.30
2018-07-12T15:43:57.292Z,45.40
2018-07-12T15:46:36.309Z,44.60
2018-07-12T15:49:09.885Z,44.20
2018-07-12T15:51:56.662Z,43.40
2018-07-12T15:54:33.599Z,42.60
2018-07-12T15:57:22.406Z,41.60
2018-07-12T15:59:55.861Z,41.80
2018-07-12T16:02:58.511Z,42.50
2018-07-12T16:05:28.155Z,43.10
2018-07-12T16:08:33.009Z,43.20
2018-07-12T16:11:05.361Z,43.50
2018-07-12T16:14:16.677Z,43.00
2018-07-12T16:17:01.838Z,41.80
2018-07-12T16:22:43.546Z,41.70
2018-07-12T16:25:12.020Z,42.00
2018-07-12T16:28:13.782Z,42.20
2018-07-12T16:30:46.361Z,42.00
2018-07-12T16:34:15.197Z,42.40
2018-07-12T16:37:53.527Z,41.50
2018-07-12T16:40:26.358Z,40.10
2018-07-12T16:43:07.742Z,38.30
2018-07-12T16:45:34.821Z,38.30
2018-07-12T16:48:13.063Z,38.40
2018-07-12T16:50:44.859Z,37.90
2018-07-12T16:53:31.355Z,38.20
2018-07-12T16:56:19.142Z,38.70
2018-07-12T16:58:52.052Z,39.20
2018-07-12T17:01:43.956Z,38.80
2018-07-12T17:04:21.060Z,38.70
2018-07-12T17:07:10.785Z,38.40
2018-07-12T17:09:39.654Z,38.20
2018-07-12T17:12:09.755Z,38.60
2018-07-12T17:14:38.101Z,38.00
2018-07-12T17:17:28.849Z,37.60
2018-07-12T17:24:02.294Z,37.20
2018-07-12T17:26:50.526Z,36.60
2018-07-12T17:29:23.617Z,36.50
2018-07-12T17:32:11.941Z,36.30
2018-07-12T17:35:02.998Z,36.10
2018-07-12T17:37:35.009Z,35.80
2018-07-12T17:40:16.562Z,35.90
2018-07-12T17:42:45.017Z,35.70
2018-07-12T17:45:16.248Z,35.40
2018-07-12T17:47:45.340Z,35.20
2018-07-12T17:50:15.422Z,34.90
2018-07-12T17:52:43.110Z,34.80
2018-07-12T17:55:11.532Z,34.60
2018-07-12T17:57:40.111Z,34.10
2018-07-12T18:00:09.295Z,33.70
2018-07-12T18:02:37.950Z,34.10
2018-07-12T18:05:06.518Z,33.70
2018-07-12T18:07:35.232Z,33.50
2018-07-12T18:10:03.804Z,33.60
2018-07-12T18:12:32.258Z,33.30
2018-07-12T18:15:03.120Z,32.90
2018-07-12T18:17:32.945Z,32.70
2018-07-12T18:20:03.082Z,32.60
2018-07-12T18:22:33.178Z,32.60
2018-07-12T18:25:03.459Z,32.40
2018-07-12T18:27:35.176Z,32.20
2018-07-12T18:32:35.655Z,31.60
2018-07-12T18:35:04.167Z,31.50
2018-07-12T18:37:32.541Z,31.10
2018-07-12T18:40:00.940Z,30.80
2018-07-12T18:42:29.686Z,30.50
2018-07-12T18:45:00.907Z,30.40
2018-07-12T18:47:29.511Z,30.20
2018-07-12T18:49:57.944Z,30.30
2018-07-12T18:52:28.153Z,29.90
2018-07-12T18:54:56.545Z,29.50
2018-07-12T18:57:27.041Z,29.20
2018-07-12T19:02:23.450Z,28.80
2018-07-12T19:04:51.852Z,28.60
2018-07-12T19:07:25.132Z,28.30
2018-07-12T19:09:53.541Z,28.10
2018-07-12T19:12:23.698Z,28.20
2018-07-12T19:14:52.243Z,27.90
2018-07-12T19:17:20.650Z,27.70
2018-07-12T19:19:52.470Z,27.40
2018-07-12T19:22:21.865Z,27.10
2018-07-12T19:24:51.158Z,26.90
2018-07-12T19:27:19.601Z,26.70
2018-07-12T19:29:48.305Z,26.70
2018-07-12T19:32:17.223Z,26.90
2018-07-12T19:34:49.763Z,26.60
2018-07-12T19:37:19.462Z,26.30
2018-07-12T19:39:47.849Z,26.50
2018-07-12T19:42:16.324Z,26.30
2018-07-12T19:44:44.998Z,26.10
2018-07-12T19:47:13.492Z,25.80
2018-07-12T19:49:42.102Z,25.60
2018-07-12T19:52:10.652Z,25.40
2018-07-12T19:54:42.108Z,25.20
2018-07-12T19:57:10.728Z,25.10
2018-07-12T19:59:39.360Z,25.10
2018-07-12T20:02:08.557Z,24.90
2018-07-12T20:04:37.036Z,24.80
2018-07-12T20:07:05.413Z,24.70
2018-07-12T20:09:45.285Z,24.70
2018-07-12T20:12:13.832Z,24.60
2018-07-12T20:14:46.139Z,24.60
2018-07-12T20:17:14.617Z,24.40
2018-07-12T20:19:42.995Z,24.20
2018-07-12T20:22:13.417Z,24.20
2018-07-12T20:24:46.415Z,24.10
2018-07-12T20:27:14.928Z,24.00
2018-07-12T20:29:43.320Z,24.30
2018-07-12T20:32:11.718Z,24.40
2018-07-12T20:34:40.085Z,24.10
2018-07-12T20:37:08.473Z,23.90
2018-07-12T20:39:36.884Z,24.10
2018-07-12T20:42:09.063Z,23.80
2018-07-12T20:44:40.620Z,23.40
2018-07-12T20:47:09.066Z,23.70
2018-07-12T20:49:37.404Z,23.60
2018-07-12T20:52:05.744Z,23.30
2018-07-12T20:54:34.115Z,23.10
2018-07-12T20:57:04.922Z,23.10
2018-07-12T20:59:33.287Z,23.00
2018-07-12T21:02:01.683Z,22.80
2018-07-12T21:04:31.184Z,22.60
2018-07-12T21:06:59.938Z,22.40
2018-07-12T21:09:31.123Z,22.40
2018-07-12T21:11:59.466Z,22.30
2018-07-12T21:14:27.821Z,22.30
2018-07-12T21:16:56.176Z,22.60
2018-07-12T21:19:24.566Z,22.40
2018-07-12T21:24:21.060Z,22.10
2018-07-12T21:26:50.433Z,22.00
2018-07-12T21:29:18.848Z,22.00
2018-07-12T21:31:52.873Z,22.00
2018-07-12T21:34:21.708Z,21.90
2018-07-12T21:36:55.529Z,21.90
2018-07-12T21:44:48.173Z,21.90
2018-07-12T21:47:49.824Z,21.80
2018-07-12T21:50:54.898Z,21.60
2018-07-12T22:00:59.837Z,21.50
2018-07-12T22:03:50.533Z,21.50
2018-07-12T22:07:18.956Z,21.40
2018-07-12T22:10:20.082Z,21.40
2018-07-12T22:12:38.360Z,21.30
2018-07-12T22:15:06.865Z,21.20
2018-07-12T22:17:35.315Z,21.20
2018-07-12T22:20:09.401Z,21.10
2018-07-12T22:39:56.242Z,21.10
2018-07-12T22:42:25.788Z,21.40
2018-07-12T22:44:57.024Z,21.10
2018-07-12T22:47:25.336Z,20.90
2018-07-12T22:49:53.880Z,20.80
2018-07-12T22:52:24.529Z,20.80
2018-07-12T22:54:52.974Z,21.10
2018-07-12T22:59:59.148Z,20.80
2018-07-12T23:02:27.807Z,20.70
2018-07-12T23:04:57.308Z,20.50
2018-07-12T23:07:43.007Z,20.50
2018-07-12T23:10:13.137Z,20.90
2018-07-12T23:12:43.501Z,20.80
2018-07-12T23:15:12.477Z,21.00
2018-07-12T23:17:42.925Z,21.10
2018-07-12T23:20:11.128Z,20.70
2018-07-12T23:22:43.400Z,20.50
2018-07-12T23:25:11.977Z,20.50
2018-07-12T23:27:40.388Z,20.30
2018-07-12T23:30:09.238Z,20.20
2018-07-12T23:32:40.029Z,20.20
2018-07-12T23:35:08.696Z,20.60
2018-07-12T23:37:38.174Z,20.40
2018-07-12T23:41:28.778Z,20.30
